createdAt,value
2018-07-11T00:00:35.527Z,19.90
2018-07-11T00:04:39.196Z,19.91
2018-07-11T00:08:42.833Z,19.91
2018-07-11T00:12:46.343Z,19.85
2018-07-11T00:16:55.110Z,19.79
2018-07-11T00:20:58.661Z,19.75
2018-07-11T00:25:02.295Z,19.75
2018-07-11T00:29:05.805Z,19.76
2018-07-11T00:33:09.333Z,19.78
2018-07-11T00:37:12.895Z,19.81
2018-07-11T00:41:16.505Z,19.78
2018-07-11T00:45:20.130Z,19.79
2018-07-11T00:49:23.603Z,19.81
2018-07-11T00:53:29.179Z,19.82
2018-07-11T00:57:33.841Z,19.84
2018-07-11T01:01:39.874Z,19.85
2018-07-11T01:05:43.398Z,19.85
2018-07-11T01:09:49.610Z,19.86
2018-07-11T01:13:53.337Z,19.86
2018-07-11T01:18:04.721Z,19.83
2018-07-11T01:22:08.344Z,19.82
2018-07-11T01:26:11.983Z,19.84
2018-07-11T01:30:15.556Z,19.84
2018-07-11T01:34:19.038Z,19.85
2018-07-11T01:38:22.564Z,19.86
2018-07-11T01:42:26.055Z,19.86
2018-07-11T01:46:41.705Z,19.85
2018-07-11T01:50:45.218Z,19.84
2018-07-11T01:54:48.749Z,19.82
2018-07-11T01:58:52.278Z,19.80
2018-07-11T02:02:56.119Z,19.79
2018-07-11T02:06:59.823Z,19.75
2018-07-11T02:11:03.360Z,19.71
2018-07-11T02:15:08.444Z,19.71
2018-07-11T02:19:12.346Z,19.71
2018-07-11T02:23:16.978Z,19.71
2018-07-11T02:27:20.419Z,19.70
2018-07-11T02:31:23.915Z,19.71
2018-07-11T02:35:27.415Z,19.70
2018-07-11T02:39:31.011Z,19.71
2018-07-11T02:43:34.479Z,19.68
2018-07-11T02:47:43.792Z,19.63
2018-07-11T02:51:47.310Z,19.63
2018-07-11T02:55:51.812Z,19.64
2018-07-11T02:59:55.275Z,19.64
2018-07-11T03:03:58.784Z,19.63
2018-07-11T03:08:02.326Z,19.62
2018-07-11T03:12:05.966Z,19.59
2018-07-11T03:16:09.421Z,19.57
2018-07-11T03:20:12.916Z,19.54
2018-07-11T03:24:17.295Z,19.56
2018-07-11T03:28:20.799Z,19.55
2018-07-11T03:32:24.502Z,19.55
2018-07-11T03:36:28.026Z,19.54
2018-07-11T03:40:31.489Z,19.56
2018-07-11T03:44:34.967Z,19.54
2018-07-11T03:48:38.777Z,19.54
2018-07-11T03:52:42.299Z,19.54
2018-07-11T03:56:45.796Z,19.53
2018-07-11T04:00:49.352Z,19.51
2018-07-11T04:04:52.899Z,19.50
2018-07-11T04:08:56.389Z,19.47
2018-07-11T04:13:01.558Z,19.46
2018-07-11T04:17:05.140Z,19.47
2018-07-11T04:21:08.615Z,19.47
2018-07-11T04:25:12.119Z,19.44
2018-07-11T04:29:15.632Z,19.44
2018-07-11T04:33:19.234Z,19.43
2018-07-11T04:37:23.297Z,19.40
2018-07-11T04:41:26.816Z,19.42
2018-07-11T04:45:30.297Z,19.44
2018-07-11T04:49:33.874Z,19.47
2018-07-11T04:53:44.792Z,19.47
2018-07-11T04:57:49.055Z,19.48
2018-07-11T05:01:52.554Z,19.50
2018-07-11T05:05:56.126Z,19.50
2018-07-11T05:09:59.599Z,19.51
2018-07-11T05:14:03.221Z,19.55
2018-07-11T05:18:06.724Z,19.55
2018-07-11T05:22:10.187Z,19.55
2018-07-11T05:26:13.620Z,19.51
2018-07-11T05:30:17.073Z,19.49
2018-07-11T05:34:20.551Z,19.53
2018-07-11T05:38:24.006Z,19.55
2018-07-11T05:42:27.552Z,19.60
2018-07-11T05:46:30.950Z,19.60
2018-07-11T05:50:34.425Z,19.60
2018-07-11T05:54:37.866Z,19.61
2018-07-11T05:58:41.302Z,19.65
2018-07-11T06:02:44.890Z,19.69
2018-07-11T06:06:48.405Z,19.71
2018-07-11T06:10:51.931Z,19.72
2018-07-11T06:14:55.547Z,19.77
2018-07-11T06:18:59.071Z,19.81
2018-07-11T06:23:02.612Z,19.86
2018-07-11T06:27:06.163Z,19.89
2018-07-11T06:31:09.724Z,19.93
2018-07-11T06:35:13.221Z,19.97
2018-07-11T06:39:16.843Z,19.95
2018-07-11T06:43:20.357Z,19.96
2018-07-11T06:47:28.013Z,19.98
2018-07-11T06:51:31.478Z,20.02
2018-07-11T06:55:34.976Z,20.08
2018-07-11T06:59:38.603Z,20.17
2018-07-11T07:03:47.151Z,20.22
2018-07-11T07:07:50.830Z,20.31
2018-07-11T07:11:54.298Z,20.39
2018-07-11T07:15:57.921Z,20.41
2018-07-11T07:20:01.410Z,20.42
2018-07-11T07:24:08.479Z,20.52
2018-07-11T07:28:11.963Z,20.68
2018-07-11T07:32:15.460Z,20.71
2018-07-11T07:36:18.942Z,20.72
2018-07-11T07:40:22.506Z,20.73
2018-07-11T07:44:26.003Z,20.79
2018-07-11T07:48:29.521Z,20.86
2018-07-11T07:52:33.005Z,20.94
2018-07-11T07:56:36.524Z,20.97
2018-07-11T08:00:39.982Z,21.00
2018-07-11T08:04:44.228Z,21.02
2018-07-11T08:08:47.825Z,21.00
2018-07-11T08:12:51.335Z,21.09
2018-07-11T08:16:54.841Z,21.17
2018-07-11T08:20:58.383Z,21.26
2018-07-11T08:25:12.900Z,21.35
2018-07-11T08:29:26.792Z,21.45
2018-07-11T08:36:14.530Z,21.54
2018-07-11T08:40:32.936Z,21.48
2018-07-11T08:44:48.243Z,21.55
2018-07-11T08:50:06.959Z,21.60
2018-07-11T08:54:20.439Z,21.68
2018-07-11T08:59:09.024Z,21.71
2018-07-11T09:03:22.542Z,21.70
2018-07-11T09:07:33.821Z,21.74
2018-07-11T09:11:48.158Z,21.81
2018-07-11T09:17:09.168Z,21.80
2018-07-11T09:21:23.556Z,21.80
2018-07-11T09:25:27.154Z,21.86
2018-07-11T09:29:30.753Z,21.95
2018-07-11T09:33:34.344Z,22.04
2018-07-11T09:37:37.941Z,22.08
2018-07-11T09:41:41.372Z,22.09
2018-07-11T09:45:44.939Z,22.16
2018-07-11T09:49:48.437Z,22.25
2018-07-11T09:53:51.986Z,22.32
2018-07-11T09:57:55.487Z,22.33
2018-07-11T10:01:59.044Z,22.32
2018-07-11T10:06:02.577Z,22.26
2018-07-11T10:10:06.073Z,22.26
2018-07-11T10:19:02.540Z,22.31
2018-07-11T10:23:07.232Z,22.28
2018-07-11T10:27:11.755Z,22.27
2018-07-11T10:31:16.698Z,22.26
2018-07-11T10:35:21.147Z,22.32
2018-07-11T10:39:27.758Z,22.29
2018-07-11T10:43:53.936Z,22.30
2018-07-11T10:48:08.620Z,22.33
2018-07-11T10:52:32.333Z,22.35
2018-07-11T10:56:40.760Z,22.42
2018-07-11T11:01:05.029Z,22.51
2018-07-11T11:04:48.510Z,22.62
2018-07-11T11:08:52.347Z,22.72
2018-07-11T11:12:56.147Z,22.71
2018-07-11T11:16:59.705Z,22.67
2018-07-11T11:21:03.336Z,22.64
2018-07-11T11:25:07.212Z,22.66
2018-07-11T11:29:10.667Z,22.79
2018-07-11T11:33:14.169Z,23.08
2018-07-11T11:37:17.737Z,23.16
2018-07-11T11:41:21.371Z,23.43
2018-07-11T11:45:24.831Z,23.52
2018-07-11T11:49:28.354Z,23.48
2018-07-11T11:53:31.947Z,23.50
2018-07-11T11:57:35.425Z,23.52
2018-07-11T12:01:38.875Z,23.49
2018-07-11T12:05:42.375Z,23.46
2018-07-11T12:09:45.870Z,23.47
2018-07-11T12:13:49.571Z,23.54
2018-07-11T12:17:53.046Z,23.59
2018-07-11T12:21:56.546Z,23.63
2018-07-11T12:26:03.626Z,23.64
2018-07-11T12:30:07.155Z,23.73
2018-07-11T12:34:10.643Z,23.86
2018-07-11T12:38:14.163Z,23.94
2018-07-11T12:42:17.952Z,24.01
2018-07-11T12:46:21.451Z,24.05
2018-07-11T12:50:24.928Z,24.01
2018-07-11T12:54:28.383Z,24.01
2018-07-11T12:58:32.002Z,24.05
2018-07-11T13:02:35.410Z,24.12
2018-07-11T13:06:38.955Z,24.19
2018-07-11T13:10:42.494Z,24.23
2018-07-11T13:14:45.993Z,24.25
2018-07-11T13:18:50.251Z,24.27
2018-07-11T13:22:54.778Z,24.34
2018-07-11T13:26:58.241Z,24.42
2018-07-11T13:31:01.703Z,24.41
2018-07-11T13:35:05.326Z,24.41
2018-07-11T13:39:19.397Z,24.48
2018-07-11T13:43:23.236Z,24.51
2018-07-11T13:47:26.785Z,24.46
2018-07-11T13:51:30.250Z,24.41
2018-07-11T13:55:33.731Z,24.38
2018-07-11T13:59:37.197Z,24.39
2018-07-11T14:03:40.720Z,24.35
2018-07-11T14:07:44.185Z,24.33
2018-07-11T14:11:47.642Z,24.24
2018-07-11T14:15:51.111Z,24.22
2018-07-11T14:19:54.622Z,24.20
2018-07-11T14:23:58.158Z,24.17
2018-07-11T14:28:01.738Z,24.12
2018-07-11T14:32:05.254Z,23.98
2018-07-11T14:36:08.705Z,23.88
2018-07-11T14:40:12.412Z,23.89
2018-07-11T14:44:15.874Z,23.85
2018-07-11T14:48:19.466Z,23.76
2018-07-11T14:52:23.061Z,23.65
2018-07-11T14:56:26.745Z,23.54
2018-07-11T15:00:30.238Z,23.39
2018-07-11T15:04:33.710Z,23.21
2018-07-11T15:08:37.576Z,23.03
2018-07-11T15:12:41.039Z,22.89
2018-07-11T15:16:44.558Z,22.74
2018-07-11T15:20:48.201Z,22.71
2018-07-11T15:24:51.710Z,22.61
2018-07-11T15:28:55.251Z,22.48
2018-07-11T15:32:58.824Z,22.42
2018-07-11T15:37:02.271Z,22.33
2018-07-11T15:41:05.771Z,22.25
2018-07-11T15:45:09.230Z,22.21
2018-07-11T15:49:12.761Z,22.16
2018-07-11T15:53:18.215Z,22.09
2018-07-11T15:57:35.938Z,22.04
2018-07-11T16:01:49.879Z,22.03
2018-07-11T16:05:54.708Z,22.04
2018-07-11T16:09:59.431Z,22.01
2018-07-11T16:14:03.048Z,21.93
2018-07-11T16:18:07.805Z,21.83
2018-07-11T16:22:11.449Z,21.80
2018-07-11T16:26:15.019Z,21.78
2018-07-11T16:30:18.516Z,21.78
2018-07-11T16:34:22.008Z,21.75
2018-07-11T16:38:25.667Z,21.71
2018-07-11T16:42:29.256Z,21.65
2018-07-11T16:46:32.739Z,21.62
2018-07-11T16:50:38.213Z,21.60
2018-07-11T16:54:43.194Z,21.59
2018-07-11T16:58:52.632Z,21.56
2018-07-11T17:03:10.253Z,21.52
2018-07-11T17:07:18.118Z,21.51
2018-07-11T17:11:23.952Z,21.52
2018-07-11T17:15:28.547Z,21.51
2018-07-11T17:19:38.205Z,21.51
2018-07-11T17:23:49.054Z,21.49
2018-07-11T17:27:57.159Z,21.49
2018-07-11T17:32:09.855Z,21.49
2018-07-11T17:36:13.696Z,21.52
2018-07-11T17:40:17.603Z,21.49
2018-07-11T17:44:22.034Z,21.43
2018-07-11T17:49:07.222Z,21.40
2018-07-11T17:53:22.373Z,21.35
2018-07-11T17:57:31.269Z,21.33
2018-07-11T18:01:43.608Z,21.33
2018-07-11T18:08:03.977Z,21.32
2018-07-11T18:12:21.876Z,21.27
2018-07-11T18:16:36.456Z,21.29
2018-07-11T18:21:45.771Z,21.25
2018-07-11T18:26:00.920Z,21.23
2018-07-11T18:30:13.537Z,21.21
2018-07-11T18:34:28.223Z,21.20
2018-07-11T18:38:43.098Z,21.19
2018-07-11T18:42:55.317Z,21.19
2018-07-11T18:47:14.453Z,21.19
2018-07-11T18:51:25.359Z,21.13
2018-07-11T18:55:36.755Z,21.10
2018-07-11T18:59:50.195Z,21.05
2018-07-11T19:06:07.674Z,20.99
2018-07-11T19:10:16.147Z,20.88
2018-07-11T19:14:32.872Z,20.81
2018-07-11T19:18:47.179Z,20.72
2018-07-11T19:23:01.625Z,20.64
2018-07-11T19:27:16.926Z,20.59
2018-07-11T19:31:28.975Z,20.50
2018-07-11T19:37:45.759Z,20.42
2018-07-11T19:42:08.143Z,20.33
2018-07-11T19:46:56.265Z,20.28
2018-07-11T19:53:14.010Z,20.21
2018-07-11T19:57:17.526Z,20.16
2018-07-11T20:01:21.064Z,20.13
2018-07-11T20:05:24.572Z,20.08
2018-07-11T20:09:28.233Z,20.06
2018-07-11T20:13:31.775Z,20.04
2018-07-11T20:17:35.334Z,20.01
2018-07-11T20:21:38.878Z,19.94
2018-07-11T20:25:42.392Z,19.87
2018-07-11T20:29:49.420Z,19.82
2018-07-11T20:33:52.998Z,19.76
2018-07-11T20:37:56.487Z,19.71
2018-07-11T20:42:00.114Z,19.67
2018-07-11T20:46:04.639Z,19.60
2018-07-11T20:50:09.194Z,19.55
2018-07-11T20:54:12.743Z,19.49
2018-07-11T20:58:27.314Z,19.46
2018-07-11T21:02:42.012Z,19.43
2018-07-11T21:06:57.215Z,19.43
2018-07-11T21:11:17.605Z,19.38
2018-07-11T21:15:38.991Z,19.34
2018-07-11T21:19:42.486Z,19.31
2018-07-11T21:23:46.217Z,19.27
2018-07-11T21:27:49.694Z,19.28
2018-07-11T21:31:53.161Z,19.27
2018-07-11T21:35:56.621Z,19.24
2018-07-11T21:40:00.118Z,19.22
2018-07-11T21:44:03.798Z,19.16
2018-07-11T21:48:07.499Z,19.11
2018-07-11T21:52:10.967Z,19.04
2018-07-11T21:56:14.562Z,18.95
2018-07-11T22:00:29.212Z,18.90
2018-07-11T22:04:32.800Z,18.87
2018-07-11T22:08:36.393Z,18.83
2018-07-11T22:12:40.053Z,18.65
2018-07-11T22:16:43.565Z,18.58
2018-07-11T22:20:45.847Z,18.53
2018-07-11T22:24:48.123Z,18.51
2018-07-11T22:28:50.396Z,18.52
2018-07-11T22:32:52.674Z,18.46
2018-07-11T22:36:54.991Z,18.44
2018-07-11T22:40:57.316Z,18.44
2018-07-11T22:44:59.574Z,18.43
2018-07-11T22:49:01.856Z,18.46
2018-07-11T22:53:04.099Z,18.42
2018-07-11T22:57:06.399Z,18.41
2018-07-11T23:01:08.778Z,18.42
2018-07-11T23:05:11.068Z,18.40
2018-07-11T23:09:13.351Z,18.38
2018-07-11T23:13:15.637Z,18.33
2018-07-11T23:17:17.910Z,18.31
2018-07-11T23:21:20.202Z,18.30
2018-07-11T23:25:22.471Z,18.23
2018-07-11T23:29:24.739Z,18.14
2018-07-11T23:33:26.990Z,18.10
2018-07-11T23:37:29.264Z,18.06
2018-07-11T23:41:31.580Z,18.06
2018-07-11T23:45:33.895Z,18.08
2018-07-11T23:49:36.159Z,18.08
2018-07-11T23:53:38.461Z,18.09
2018-07-11T23:57:40.774Z,18.11
